createdAt,value
2022-12-19T00:05:05.992Z,30.93
2022-12-19T00:20:09.491Z,33.07
2022-12-19T00:35:14.637Z,32.67
2022-12-19T00:50:18.931Z,25.90
2022-12-19T01:05:21.624Z,24.67
2022-12-19T01:20:29.494Z,24.57
2022-12-19T01:35:33.092Z,24.67
2022-12-19T01:51:02.890Z,22.13
2022-12-19T02:06:07.328Z,23.43
2022-12-19T02:21:29.156Z,20.93
2022-12-19T02:36:45.421Z,21.97
2022-12-19T02:51:51.705Z,11.87
2022-12-19T03:07:18.185Z,10.30
2022-12-19T03:22:21.353Z,9.03
2022-12-19T03:37:28.460Z,10.70
2022-12-19T03:52:45.983Z,9.03
2022-12-19T04:07:50.812Z,7.97
2022-12-19T04:23:18.063Z,8.47
2022-12-19T04:38:20.935Z,7.20
2022-12-19T04:53:25.120Z,7.10
2022-12-19T05:08:28.094Z,6.30
2022-12-19T05:23:31.332Z,7.13
2022-12-19T05:38:34.902Z,5.30
2022-12-19T05:53:39.996Z,6.10
2022-12-19T06:08:43.336Z,4.93
2022-12-19T06:23:46.993Z,5.37
2022-12-19T06:38:51.114Z,5.63
2022-12-19T06:53:54.321Z,6.03
2022-12-19T07:08:57.726Z,6.03
2022-12-19T07:24:01.530Z,7.00
2022-12-19T07:39:08.191Z,6.67
2022-12-19T07:54:11.473Z,8.97
2022-12-19T08:09:14.419Z,8.70
2022-12-19T08:24:17.778Z,6.40
2022-12-19T08:39:20.823Z,7.30
2022-12-19T08:54:23.771Z,6.00
2022-12-19T09:09:27.327Z,7.97
2022-12-19T09:24:30.363Z,5.10
2022-12-19T09:39:35.167Z,5.13
2022-12-19T09:55:02.268Z,4.90
2022-12-19T10:10:06.040Z,4.50
2022-12-19T10:25:38.598Z,4.40
2022-12-19T10:41:08.860Z,5.40
2022-12-19T10:56:23.445Z,3.40
2022-12-19T11:11:35.882Z,3.43
2022-12-19T11:30:43.544Z,3.30
2022-12-19T11:43:25.648Z,3.17
2022-12-19T11:58:18.097Z,3.63
2022-12-19T12:26:24.186Z,2.77
2022-12-19T12:32:04.002Z,3.20
2022-12-19T12:44:54.733Z,3.27
2022-12-19T13:00:19.589Z,2.67
2022-12-19T13:15:28.630Z,2.87
2022-12-19T13:30:45.906Z,2.30
2022-12-19T13:46:06.029Z,3.13
2022-12-19T14:01:21.012Z,2.53
2022-12-19T14:16:43.262Z,3.80
2022-12-19T14:33:39.038Z,2.70
2022-12-19T14:53:17.458Z,3.80
2022-12-19T15:02:39.472Z,3.10
2022-12-19T15:17:46.224Z,2.67
2022-12-19T15:32:49.181Z,2.37
2022-12-19T15:47:52.765Z,2.40
2022-12-19T16:03:22.601Z,2.27
2022-12-19T16:18:20.010Z,4.37
2022-12-19T16:33:26.089Z,3.17
2022-12-19T16:48:30.138Z,2.93
2022-12-19T17:03:41.752Z,3.93
2022-12-19T17:18:46.151Z,3.17
2022-12-19T17:33:49.773Z,4.03
2022-12-19T17:48:54.092Z,2.87
2022-12-19T18:03:58.621Z,2.83
2022-12-19T18:19:01.880Z,4.57
2022-12-19T18:34:07.959Z,2.43
2022-12-19T18:49:14.037Z,3.00
2022-12-19T19:04:18.096Z,3.73
2022-12-19T19:19:21.471Z,5.07
2022-12-19T19:34:32.551Z,2.97
2022-12-19T19:49:35.572Z,3.33
2022-12-19T20:04:38.832Z,4.57
2022-12-19T20:19:41.861Z,3.10
2022-12-19T20:34:44.900Z,2.00
2022-12-19T20:49:47.767Z,2.53
2022-12-19T21:04:50.621Z,2.77
2022-12-19T21:19:53.613Z,2.70
2022-12-19T21:34:57.756Z,1.97
2022-12-19T21:50:00.442Z,2.53
2022-12-19T22:05:03.640Z,2.03
2022-12-19T22:20:09.076Z,1.90
2022-12-19T22:35:12.038Z,1.63
2022-12-19T22:50:15.068Z,2.40
2022-12-19T23:05:18.037Z,2.30
2022-12-19T23:20:20.970Z,2.27
2022-12-19T23:35:24.837Z,2.37
2022-12-19T23:50:27.812Z,2.33
